Time;durP1;ratioP1;P1;durP2;ratioP2;P2;SDS_P1;SDS_P2;PMS_P1;PMS_P2;Temp;Humidity;BMP_temperature;BMP_pressure;BME280_temperature;BME280_humidity;BME280_pressure;Samples;Min_cycle;Max_cycle;Signal;HPM_P1;HPM_P2
2023/10/03 08:16:56;;;;;;;;;;;;;;;21.94;56.96;99804.78;1088154;54;1922;-81
2023/10/03 08:28:28;;;;;;;;;;;;;;;22.96;52.36;99804.38;1087559;54;1873;-81
2023/10/03 08:29:35;;;;;;;;;;;;;;;23.02;52.14;99800.72;1088696;54;861;-85
2023/10/03 09:00:12;;;;;;;;;;;;;;;23.55;52.47;99798.22;1078559;54;1977;-83
2023/10/03 10:02:30;;;;;;;;;;;;;;;25.78;44.81;99774.06;1087937;54;2059;-82
2023/10/03 10:07:01;;;;;;;;;;;;;;;25.85;45.31;99774.69;1088823;47;903;-83
2023/10/03 10:08:13;;;;;;;;;;;;;;;25.90;45.67;99782.97;1088863;46;900;-84
2023/10/03 10:09:39;;;;;;;;;;;;;;;25.93;45.69;99782.47;1088753;46;961;-83
2023/10/03 10:10:41;;;;;;;;;;;;;;;25.91;45.71;99768.19;1088605;46;1845;-83
2023/10/03 15:38:55;;;;;;;;;;;;;;;19.36;84.22;100046.84;1087887;54;672;-80
2023/10/03 15:40:02;;;;;;;;;;;;;;;19.30;83.62;100086.44;1087909;54;1393;-79
2023/10/03 15:41:10;;;;;;;;;;;;;;;19.31;83.94;100098.94;1087450;47;1056;-81
2023/10/03 15:42:15;;;;;;;;;;;;;;;19.42;83.41;100094.81;1087781;47;1040;-81
2023/10/03 15:43:32;;;;;;;;;;;;;;;19.44;83.49;100100.88;1087722;46;1317;-80
2023/10/03 15:44:35;;;;;;;;;;;;;;;19.34;83.35;100103.97;1087999;54;939;-81
2023/10/03 15:45:46;;;;;;;;;;;;;;;19.40;84.21;100108.59;1088243;47;967;-81
2023/10/03 15:46:47;;;;;;;;;;;;;;;19.48;82.98;100116.53;1087389;54;1573;-81
2023/10/03 15:47:52;;;;;;;;;;;;;;;19.39;83.59;100112.34;1087850;54;1075;-80
2023/10/03 15:49:37;;;;;;;;;;;;;;;;;;;;;
2023/10/03 15:50:57;;;;;;;;;;;;;;;19.43;82.96;100132.59;1089008;46;1860;-81
2023/10/03 15:52:04;;;;;;;;;;;;;;;19.49;82.92;100133.66;1088054;47;1000;-80
2023/10/03 15:53:10;;;;;;;;;;;;;;;19.34;82.19;100141.94;1088302;46;1456;-80
2023/10/03 15:54:26;;;;;;;;;;;;;;;19.26;81.80;100163.78;1087846;54;1093;-80
2023/10/03 15:55:39;;;;;;;;;;;;;;;19.18;79.99;100154.75;1088001;54;1035;-81
2023/10/03 15:56:55;;;;;;;;;;;;;;;19.16;79.25;100167.66;1087408;47;935;-79
2023/10/03 15:58:05;;;;;;;;;;;;;;;19.10;79.21;100173.88;1087700;54;1082;-80
2023/10/03 15:59:23;;;;;;;;;;;;;;;19.04;79.12;100185.50;1087749;54;933;-79
2023/10/03 16:00:28;;;;;;;;;;;;;;;19.03;78.84;100191.94;1087801;54;1003;-79
2023/10/03 16:01:29;;;;;;;;;;;;;;;18.94;78.26;100206.66;1087807;54;1487;-80
2023/10/03 16:02:45;;;;;;;;;;;;;;;;;;;;;
2023/10/03 16:03:46;;;;;;;;;;;;;;;18.88;79.24;100223.69;1088627;46;1161;-79
2023/10/03 16:04:50;;;;;;;;;;;;;;;18.81;79.39;100235.28;1087302;47;1099;-79
2023/10/03 16:05:57;;;;;;;;;;;;;;;18.81;79.16;100235.28;1086894;47;996;-80
2023/10/03 16:07:01;;;;;;;;;;;;;;;18.74;79.35;100239.81;1087097;47;1602;-80
2023/10/03 16:08:02;;;;;;;;;;;;;;;18.58;79.98;100240.06;1087159;54;1016;-80
2023/10/03 16:09:08;;;;;;;;;;;;;;;18.68;79.37;100251.41;1087586;54;1501;-79
2023/10/03 16:10:24;;;;;;;;;;;;;;;18.71;79.64;100262.69;1087838;54;960;-81
2023/10/03 16:11:28;;;;;;;;;;;;;;;18.74;79.96;100264.16;1087319;54;916;-81
2023/10/03 16:12:30;;;;;;;;;;;;;;;18.75;79.77;100257.72;1087652;54;857;-80
2023/10/03 16:13:34;;;;;;;;;;;;;;;18.66;79.00;100258.88;1087253;47;1273;-78
2023/10/03 16:14:35;;;;;;;;;;;;;;;18.51;78.89;100261.66;1086940;54;1061;-79
2023/10/03 16:15:41;;;;;;;;;;;;;;;18.38;78.89;100265.88;1087254;54;1019;-79
2023/10/03 16:16:42;;;;;;;;;;;;;;;18.44;78.15;100263.44;1086984;54;1112;-79
2023/10/03 16:17:46;;;;;;;;;;;;;;;18.56;78.25;100259.22;1087498;54;1254;-79
2023/10/03 16:18:47;;;;;;;;;;;;;;;18.50;77.16;100247.28;1087866;47;1079;-79
2023/10/03 16:19:48;;;;;;;;;;;;;;;18.51;77.62;100254.38;1087288;47;1103;-80
2023/10/03 16:20:52;;;;;;;;;;;;;;;18.29;78.07;100269.72;1087249;54;1005;-80
2023/10/03 16:21:53;;;;;;;;;;;;;;;18.40;77.88;100271.13;1086618;47;1074;-79
2023/10/03 16:22:57;;;;;;;;;;;;;;;18.34;77.53;100277.25;1086542;47;1373;-80
2023/10/03 16:23:59;;;;;;;;;;;;;;;18.27;77.57;100281.78;1087548;47;1080;-80
2023/10/03 16:25:00;;;;;;;;;;;;;;;18.17;77.31;100290.19;1087683;47;1286;-80
2023/10/03 16:26:07;;;;;;;;;;;;;;;18.29;76.98;100295.97;1087603;47;1004;-80
2023/10/03 16:27:07;;;;;;;;;;;;;;;18.15;76.84;100306.59;1087790;47;1532;-79
2023/10/03 16:28:09;;;;;;;;;;;;;;;18.15;76.44;100312.00;1087508;47;1109;-80
2023/10/03 16:29:12;;;;;;;;;;;;;;;18.00;76.79;100330.94;1087405;54;1133;-80
2023/10/03 16:30:13;;;;;;;;;;;;;;;17.95;76.40;100332.53;1087484;54;1104;-79
2023/10/03 16:31:18;;;;;;;;;;;;;;;17.93;76.76;100344.38;1087453;47;1858;-79
2023/10/03 16:32:19;;;;;;;;;;;;;;;17.93;77.74;100336.25;1087180;47;961;-80
2023/10/03 16:33:23;;;;;;;;;;;;;;;17.95;77.56;100338.75;1087393;47;1262;-79
2023/10/03 16:34:27;;;;;;;;;;;;;;;17.86;77.19;100335.28;1087228;47;1054;-80
2023/10/03 16:35:28;;;;;;;;;;;;;;;17.89;77.25;100340.34;1087656;47;946;-80
2023/10/03 16:36:32;;;;;;;;;;;;;;;17.96;76.77;100345.00;1087422;47;1040;-80
2023/10/03 16:37:35;;;;;;;;;;;;;;;17.99;77.26;100339.25;1086729;54;1141;-80
2023/10/03 16:39:52;;;;;;;;;;;;;;;18.15;76.20;100349.88;1087232;54;1068;-80
2023/10/03 16:40:59;;;;;;;;;;;;;;;18.13;75.87;100356.50;1087782;54;1088;-80
2023/10/03 17:10:11;;;;;;;;;;;;;;;17.80;73.04;100438.78;1088614;46;938;-80
2023/10/03 17:11:16;;;;;;;;;;;;;;;17.81;72.44;100439.63;1088586;47;1908;-79
2023/10/03 17:12:28;;;;;;;;;;;;;;;17.76;71.84;100443.72;1088390;54;929;-80
2023/10/03 17:13:47;;;;;;;;;;;;;;;17.68;70.69;100451.91;1088013;47;1261;-82
2023/10/03 17:14:51;;;;;;;;;;;;;;;17.89;71.25;100453.91;1088173;46;933;-79
2023/10/03 17:16:11;;;;;;;;;;;;;;;17.93;70.84;100459.81;1088330;47;988;-82
2023/10/03 17:17:35;;;;;;;;;;;;;;;;;;;;;
2023/10/03 17:18:37;;;;;;;;;;;;;;;17.97;70.28;100476.53;1088330;54;755;-81
2023/10/03 17:19:49;;;;;;;;;;;;;;;17.93;70.20;100482.28;1088052;54;1067;-80
2023/10/03 17:21:32;;;;;;;;;;;;;;;17.86;69.72;100475.91;1088532;47;1519;-80
2023/10/03 17:22:36;;;;;;;;;;;;;;;17.78;70.16;100484.09;1088642;46;1166;-80
2023/10/03 17:23:37;;;;;;;;;;;;;;;17.85;69.93;100487.78;1088461;54;1313;-78
2023/10/03 17:24:40;;;;;;;;;;;;;;;17.84;69.76;100488.81;1088221;47;1664;-78
2023/10/03 17:25:44;;;;;;;;;;;;;;;17.91;70.18;100487.03;1088211;47;990;-78
2023/10/03 17:26:47;;;;;;;;;;;;;;;17.98;69.90;100500.72;1088242;54;975;-79
2023/10/03 17:27:48;;;;;;;;;;;;;;;18.00;70.54;100498.63;1088349;54;941;-80
2023/10/03 17:28:49;;;;;;;;;;;;;;;18.04;70.25;100499.16;1088239;47;1472;-79
2023/10/03 17:29:53;;;;;;;;;;;;;;;18.02;70.03;100501.19;1088404;54;1026;-79
2023/10/03 17:30:55;;;;;;;;;;;;;;;18.00;69.89;100505.94;1088432;54;1833;-79
2023/10/03 17:32:01;;;;;;;;;;;;;;;18.02;70.07;100512.00;1088339;54;974;-79
2023/10/03 17:33:23;;;;;;;;;;;;;;;17.89;70.45;100512.59;1088397;54;1337;-80
2023/10/03 17:35:10;;;;;;;;;;;;;;;17.86;70.59;100519.19;1088420;47;869;-80
2023/10/03 17:36:14;;;;;;;;;;;;;;;17.81;70.63;100526.16;1088368;46;1032;-80
2023/10/03 17:37:16;;;;;;;;;;;;;;;17.92;70.57;100534.69;1088255;47;1501;-78
2023/10/03 17:38:27;;;;;;;;;;;;;;;17.77;70.49;100528.38;1088408;54;1118;-81
2023/10/03 17:39:28;;;;;;;;;;;;;;;17.79;70.69;100529.03;1088476;47;1131;-81
2023/10/03 17:40:44;;;;;;;;;;;;;;;17.71;70.02;100527.22;1088391;47;1969;-80
2023/10/03 17:41:51;;;;;;;;;;;;;;;17.66;68.88;100528.81;1088609;54;1023;-81
2023/10/03 17:43:04;;;;;;;;;;;;;;;17.68;69.08;100529.47;1088319;54;1443;-81
2023/10/03 17:44:09;;;;;;;;;;;;;;;17.70;69.11;100530.13;1088554;54;1047;-81
2023/10/03 17:45:13;;;;;;;;;;;;;;;17.66;68.78;100539.63;1088386;47;1308;-79
2023/10/03 17:46:16;;;;;;;;;;;;;;;17.74;68.52;100531.47;1088411;47;1022;-79
2023/10/03 17:49:04;;;;;;;;;;;;;;;17.83;68.31;100545.75;1088484;54;1133;-79
2023/10/03 17:50:17;;;;;;;;;;;;;;;17.88;68.59;100548.78;1088532;54;1465;-80
2023/10/03 17:54:46;;;;;;;;;;;;;;;17.73;67.83;100552.22;1088387;47;886;-81
2023/10/03 17:55:46;;;;;;;;;;;;;;;17.67;67.49;100552.09;1088190;47;995;-79
2023/10/03 17:56:54;;;;;;;;;;;;;;;17.70;67.67;100552.63;1088203;47;980;-80
2023/10/03 17:57:56;;;;;;;;;;;;;;;17.76;67.84;100559.13;1088227;47;1034;-80
2023/10/03 17:59:05;;;;;;;;;;;;;;;17.64;67.66;100550.59;1088269;54;971;-79
2023/10/03 18:00:12;;;;;;;;;;;;;;;17.55;67.85;100547.13;1087966;47;1108;-78
2023/10/03 18:01:23;;;;;;;;;;;;;;;17.44;68.24;100548.34;1087932;47;1495;-78
2023/10/03 18:02:28;;;;;;;;;;;;;;;17.50;68.59;100559.50;1088176;47;954;-79
2023/10/03 18:03:36;;;;;;;;;;;;;;;17.55;68.29;100563.34;1088506;51;1484;-80
2023/10/03 18:04:38;;;;;;;;;;;;;;;17.60;68.60;100566.34;1088264;47;1186;-79
2023/10/03 18:05:41;;;;;;;;;;;;;;;17.64;68.66;100568.69;1088221;47;1485;-79
2023/10/03 18:06:42;;;;;;;;;;;;;;;17.66;68.38;100572.06;1088359;54;1036;-80
2023/10/03 18:07:47;;;;;;;;;;;;;;;17.66;68.30;100578.31;1088374;54;1030;-80
2023/10/03 18:08:48;;;;;;;;;;;;;;;17.65;69.11;100576.63;1088193;47;1496;-80
2023/10/03 18:09:52;;;;;;;;;;;;;;;17.67;68.74;100579.13;1088286;47;1449;-80
2023/10/03 18:10:56;;;;;;;;;;;;;;;17.60;69.76;100582.56;1088319;54;1838;-80
2023/10/03 18:12:10;;;;;;;;;;;;;;;17.49;69.91;100588.38;1088263;54;1071;-80
2023/10/03 18:13:35;;;;;;;;;;;;;;;17.48;70.68;100600.19;1088524;54;1345;-80
2023/10/03 18:14:39;;;;;;;;;;;;;;;17.39;72.13;100595.84;1088403;47;1326;-80
2023/10/03 18:15:40;;;;;;;;;;;;;;;17.31;72.71;100591.34;1088388;54;966;-80
2023/10/03 18:16:45;;;;;;;;;;;;;;;17.36;72.49;100596.22;1088296;47;1402;-79
2023/10/03 18:18:00;;;;;;;;;;;;;;;17.30;72.52;100606.69;1088387;54;1022;-80
2023/10/03 18:19:05;;;;;;;;;;;;;;;17.28;72.66;100605.19;1088441;54;1056;-80
2023/10/03 18:20:19;;;;;;;;;;;;;;;17.25;72.70;100609.09;1088331;47;1885;-81
2023/10/03 18:21:23;;;;;;;;;;;;;;;17.33;72.68;100613.63;1088391;47;1469;-81
2023/10/03 18:22:26;;;;;;;;;;;;;;;17.25;73.29;100611.78;1088469;47;1962;-80
2023/10/03 18:23:41;;;;;;;;;;;;;;;;;;;;;
2023/10/03 18:25:26;;;;;;;;;;;;;;;17.10;73.43;100624.31;1088801;47;945;-80
2023/10/03 18:31:18;;;;;;;;;;;;;;;17.09;72.13;100646.97;1088469;46;1833;-79
2023/10/03 18:32:37;;;;;;;;;;;;;;;17.07;72.27;100649.00;1088437;54;1678;-81
